TimeMST,TemperatureF,Dew PointF,Humidity,Sea Level PressureIn,VisibilityMPH,Wind Direction,Wind SpeedMPH,Gust SpeedMPH,PrecipitationIn,Events,Conditions,WindDirDegrees,DateUTC
12:53 AM,1.9,-0.0,91,30.32,10.0,East,6.9,-,N/A,,Mostly Cloudy,90,2014-02-10 07:53:00
1:10 AM,1.9,-0.9,88,30.07,10.0,East,8.1,-,N/A,,Mostly Cloudy,80,2014-02-10 08:10:00
1:26 AM,3.0,-0.0,87,30.08,10.0,ENE,8.1,-,N/A,,Overcast,70,2014-02-10 08:26:00
1:53 AM,5.0,1.9,87,30.32,10.0,East,8.1,-,N/A,,Overcast,80,2014-02-10 08:53:00
2:53 AM,3.9,1.0,88,30.30,10.0,East,3.5,-,N/A,,Partly Cloudy,90,2014-02-10 09:53:00
3:53 AM,-0.0,-2.0,91,30.30,9.0,East,6.9,-,N/A,,Clear,90,2014-02-10 10:53:00
4:53 AM,1.0,-0.9,91,30.29,9.0,ENE,4.6,-,N/A,,Partly Cloudy,70,2014-02-10 11:53:00
5:53 AM,1.9,-0.9,88,30.29,8.0,NNE,4.6,-,N/A,,Clear,20,2014-02-10 12:53:00
6:53 AM,1.9,-0.9,88,30.28,8.0,Calm,Calm,-,N/A,,Mostly Cloudy,0,2014-02-10 13:53:00
7:33 AM,1.0,-2.0,87,30.03,6.0,WNW,3.5,-,N/A,,Scattered Clouds,290,2014-02-10 14:33:00
7:42 AM,1.9,-2.0,83,30.04,5.0,NNW,4.6,-,N/A,,Mostly Cloudy,330,2014-02-10 14:42:00
7:53 AM,1.0,-2.0,87,30.31,4.0,NW,5.8,-,N/A,,Overcast,310,2014-02-10 14:53:00
8:31 AM,3.0,-0.0,87,30.06,7.0,WNW,4.6,-,N/A,,Scattered Clouds,300,2014-02-10 15:31:00
8:53 AM,6.1,1.9,83,30.29,5.0,North,3.5,-,N/A,,Mostly Cloudy,350,2014-02-10 15:53:00
9:10 AM,6.1,3.0,87,30.05,6.0,Calm,Calm,-,N/A,,Scattered Clouds,0,2014-02-10 16:10:00
9:53 AM,7.0,3.9,87,30.29,7.0,West,3.5,-,N/A,,Clear,280,2014-02-10 16:53:00
10:53 AM,8.1,3.0,80,30.30,8.0,NNW,6.9,-,N/A,,Scattered Clouds,340,2014-02-10 17:53:00
11:53 AM,12.9,6.1,74,30.27,8.0,Calm,Calm,-,N/A,,Clear,0,2014-02-10 18:53:00
12:53 PM,14.0,8.1,77,30.26,8.0,North,5.8,-,N/A,,Partly Cloudy,350,2014-02-10 19:53:00
1:53 PM,16.0,9.0,74,30.23,8.0,NNW,4.6,-,N/A,,Overcast,340,2014-02-10 20:53:00
2:53 PM,17.1,10.0,74,30.22,9.0,Variable,4.6,-,N/A,,Mostly Cloudy,0,2014-02-10 21:53:00
3:53 PM,17.1,10.0,74,30.26,8.0,NNE,4.6,-,N/A,,Mostly Cloudy,20,2014-02-10 22:53:00
4:53 PM,16.0,9.0,74,30.28,8.0,ENE,3.5,-,N/A,,Overcast,70,2014-02-10 23:53:00
5:53 PM,12.0,7.0,80,30.33,8.0,South,4.6,-,N/A,,Mostly Cloudy,180,2014-02-11 00:53:00
6:53 PM,10.9,6.1,81,30.35,8.0,South,3.5,-,N/A,,Partly Cloudy,180,2014-02-11 01:53:00
7:53 PM,10.0,6.1,84,30.36,7.0,West,4.6,-,N/A,,Clear,270,2014-02-11 02:53:00
8:53 PM,5.0,3.0,92,30.37,5.0,NW,4.6,-,N/A,,Clear,320,2014-02-11 03:53:00
9:53 PM,5.0,1.9,87,30.35,6.0,NNW,4.6,-,N/A,,Clear,330,2014-02-11 04:53:00
10:53 PM,1.9,-0.9,88,30.34,5.0,Calm,Calm,-,N/A,,Clear,0,2014-02-11 05:53:00
11:53 PM,1.0,-2.0,87,30.32,4.0,Calm,Calm,-,N/A,,Clear,0,2014-02-11 06:53:00